sensor_id;sensor_type;location;lat;lon;timestamp;temperature;humidity
4050;DHT22;2039;50.894;6.888;2023-04-06T00:01:48;3.30;65.70
4050;DHT22;2039;50.894;6.888;2023-04-06T00:04:15;3.30;66.20
4050;DHT22;2039;50.894;6.888;2023-04-06T00:06:43;3.20;68.90
4050;DHT22;2039;50.894;6.888;2023-04-06T00:09:09;3.20;68.00
4050;DHT22;2039;50.894;6.888;2023-04-06T00:11:35;3.20;69.40
4050;DHT22;2039;50.894;6.888;2023-04-06T00:14:01;3.20;74.40
4050;DHT22;2039;50.894;6.888;2023-04-06T00:16:26;3.10;74.60
4050;DHT22;2039;50.894;6.888;2023-04-06T00:18:52;3.10;77.30
4050;DHT22;2039;50.894;6.888;2023-04-06T00:21:18;3.10;79.10
4050;DHT22;2039;50.894;6.888;2023-04-06T00:23:44;3.10;79.40
4050;DHT22;2039;50.894;6.888;2023-04-06T00:26:10;3.00;81.90
4050;DHT22;2039;50.894;6.888;2023-04-06T00:28:38;3.00;80.30
4050;DHT22;2039;50.894;6.888;2023-04-06T00:31:04;3.00;82.40
4050;DHT22;2039;50.894;6.888;2023-04-06T00:33:29;3.10;86.10
4050;DHT22;2039;50.894;6.888;2023-04-06T00:35:55;3.10;84.30
4050;DHT22;2039;50.894;6.888;2023-04-06T00:38:22;3.00;82.60
4050;DHT22;2039;50.894;6.888;2023-04-06T00:40:47;3.10;86.30
4050;DHT22;2039;50.894;6.888;2023-04-06T00:43:14;3.10;86.50
4050;DHT22;2039;50.894;6.888;2023-04-06T00:45:41;3.10;86.50
4050;DHT22;2039;50.894;6.888;2023-04-06T00:48:07;3.10;85.90
4050;DHT22;2039;50.894;6.888;2023-04-06T00:50:33;3.10;83.10
4050;DHT22;2039;50.894;6.888;2023-04-06T00:53:00;3.10;84.80
4050;DHT22;2039;50.894;6.888;2023-04-06T00:55:29;3.10;82.60
4050;DHT22;2039;50.894;6.888;2023-04-06T00:57:57;3.10;86.60
4050;DHT22;2039;50.894;6.888;2023-04-06T01:00:26;3.10;85.40
4050;DHT22;2039;50.894;6.888;2023-04-06T01:02:52;3.00;86.30
4050;DHT22;2039;50.894;6.888;2023-04-06T01:05:18;3.10;85.60
4050;DHT22;2039;50.894;6.888;2023-04-06T01:07:45;3.00;87.40
4050;DHT22;2039;50.894;6.888;2023-04-06T01:10:10;3.00;86.30
4050;DHT22;2039;50.894;6.888;2023-04-06T01:12:36;3.00;87.50
4050;DHT22;2039;50.894;6.888;2023-04-06T01:15:04;2.90;90.10
4050;DHT22;2039;50.894;6.888;2023-04-06T01:17:31;2.90;88.20
4050;DHT22;2039;50.894;6.888;2023-04-06T01:19:57;2.90;90.30
4050;DHT22;2039;50.894;6.888;2023-04-06T01:22:24;2.80;90.70
4050;DHT22;2039;50.894;6.888;2023-04-06T01:24:53;2.80;91.70
4050;DHT22;2039;50.894;6.888;2023-04-06T01:27:19;2.70;91.80
4050;DHT22;2039;50.894;6.888;2023-04-06T01:29:45;2.70;92.80
4050;DHT22;2039;50.894;6.888;2023-04-06T01:32:10;2.60;92.70
4050;DHT22;2039;50.894;6.888;2023-04-06T01:34:36;2.60;93.70
4050;DHT22;2039;50.894;6.888;2023-04-06T01:37:02;2.60;93.70
4050;DHT22;2039;50.894;6.888;2023-04-06T01:39:29;2.60;95.10
4050;DHT22;2039;50.894;6.888;2023-04-06T01:41:55;2.60;94.90
4050;DHT22;2039;50.894;6.888;2023-04-06T01:44:21;2.50;94.60
4050;DHT22;2039;50.894;6.888;2023-04-06T01:46:46;2.50;94.60
4050;DHT22;2039;50.894;6.888;2023-04-06T01:49:12;2.50;92.80
4050;DHT22;2039;50.894;6.888;2023-04-06T01:51:38;2.40;93.50
4050;DHT22;2039;50.894;6.888;2023-04-06T01:54:04;2.40;95.50
4050;DHT22;2039;50.894;6.888;2023-04-06T01:56:30;2.40;95.40
4050;DHT22;2039;50.894;6.888;2023-04-06T01:58:55;2.40;96.50
4050;DHT22;2039;50.894;6.888;2023-04-06T02:01:21;2.40;96.30
4050;DHT22;2039;50.894;6.888;2023-04-06T02:03:47;2.30;97.70
4050;DHT22;2039;50.894;6.888;2023-04-06T02:06:13;2.30;98.70
4050;DHT22;2039;50.894;6.888;2023-04-06T02:08:39;2.30;98.00
4050;DHT22;2039;50.894;6.888;2023-04-06T02:11:05;2.30;98.60
4050;DHT22;2039;50.894;6.888;2023-04-06T02:13:30;2.30;99.50
4050;DHT22;2039;50.894;6.888;2023-04-06T02:15:56;2.30;99.80
4050;DHT22;2039;50.894;6.888;2023-04-06T02:18:22;2.30;98.60
4050;DHT22;2039;50.894;6.888;2023-04-06T02:20:48;2.30;99.20
4050;DHT22;2039;50.894;6.888;2023-04-06T02:23:14;2.20;97.70
4050;DHT22;2039;50.894;6.888;2023-04-06T02:25:40;2.20;97.50
4050;DHT22;2039;50.894;6.888;2023-04-06T02:28:06;2.20;98.30
4050;DHT22;2039;50.894;6.888;2023-04-06T02:30:32;2.20;99.80
4050;DHT22;2039;50.894;6.888;2023-04-06T02:33:01;2.20;99.90
4050;DHT22;2039;50.894;6.888;2023-04-06T02:35:31;2.20;99.90
4050;DHT22;2039;50.894;6.888;2023-04-06T02:37:57;2.20;99.90
4050;DHT22;2039;50.894;6.888;2023-04-06T02:40:22;2.10;99.90
4050;DHT22;2039;50.894;6.888;2023-04-06T02:42:48;2.10;99.90
4050;DHT22;2039;50.894;6.888;2023-04-06T02:45:14;2.10;99.80
4050;DHT22;2039;50.894;6.888;2023-04-06T02:47:39;2.20;99.90
4050;DHT22;2039;50.894;6.888;2023-04-06T02:50:05;2.10;99.10
4050;DHT22;2039;50.894;6.888;2023-04-06T02:52:32;2.00;98.50
4050;DHT22;2039;50.894;6.888;2023-04-06T02:54:58;2.00;99.30
4050;DHT22;2039;50.894;6.888;2023-04-06T02:57:23;2.00;99.70
4050;DHT22;2039;50.894;6.888;2023-04-06T02:59:49;2.00;99.90
4050;DHT22;2039;50.894;6.888;2023-04-06T03:02:15;1.90;99.90
4050;DHT22;2039;50.894;6.888;2023-04-06T03:04:41;2.00;99.90
4050;DHT22;2039;50.894;6.888;2023-04-06T03:07:07;1.90;99.90
4050;DHT22;2039;50.894;6.888;2023-04-06T03:09:32;1.90;99.90
4050;DHT22;2039;50.894;6.888;2023-04-06T03:11:59;1.90;99.90
4050;DHT22;2039;50.894;6.888;2023-04-06T03:14:25;1.90;99.90
4050;DHT22;2039;50.894;6.888;2023-04-06T03:16:51;1.90;99.90
4050;DHT22;2039;50.894;6.888;2023-04-06T03:19:16;1.90;99.90
4050;DHT22;2039;50.894;6.888;2023-04-06T03:21:42;1.90;99.90
4050;DHT22;2039;50.894;6.888;2023-04-06T03:24:08;1.90;99.90
4050;DHT22;2039;50.894;6.888;2023-04-06T03:26:33;1.80;99.90
4050;DHT22;2039;50.894;6.888;2023-04-06T03:28:59;1.80;99.90
4050;DHT22;2039;50.894;6.888;2023-04-06T03:31:26;1.80;99.90
4050;DHT22;2039;50.894;6.888;2023-04-06T03:33:52;1.80;99.90
4050;DHT22;2039;50.894;6.888;2023-04-06T03:36:18;1.80;99.90
4050;DHT22;2039;50.894;6.888;2023-04-06T03:38:43;1.80;99.90
4050;DHT22;2039;50.894;6.888;2023-04-06T03:41:09;1.80;99.90
4050;DHT22;2039;50.894;6.888;2023-04-06T03:43:35;1.70;99.90
4050;DHT22;2039;50.894;6.888;2023-04-06T03:46:01;1.80;99.90
4050;DHT22;2039;50.894;6.888;2023-04-06T03:48:27;1.80;99.90
4050;DHT22;2039;50.894;6.888;2023-04-06T03:50:52;1.80;99.90
4050;DHT22;2039;50.894;6.888;2023-04-06T03:53:18;1.80;99.90
4050;DHT22;2039;50.894;6.888;2023-04-06T03:55:44;1.70;99.90
4050;DHT22;2039;50.894;6.888;2023-04-06T03:58:10;1.70;99.90
4050;DHT22;2039;50.894;6.888;2023-04-06T04:00:35;1.70;99.90
4050;DHT22;2039;50.894;6.888;2023-04-06T04:03:01;1.70;99.90
4050;DHT22;2039;50.894;6.888;2023-04-06T04:05:28;1.70;99.90
4050;DHT22;2039;50.894;6.888;2023-04-06T04:07:54;1.70;99.90
4050;DHT22;2039;50.894;6.888;2023-04-06T04:10:20;1.70;99.90
4050;DHT22;2039;50.894;6.888;2023-04-06T04:12:46;1.70;99.90
4050;DHT22;2039;50.894;6.888;2023-04-06T04:15:12;1.70;99.90
4050;DHT22;2039;50.894;6.888;2023-04-06T04:17:37;1.70;99.90
4050;DHT22;2039;50.894;6.888;2023-04-06T04:20:03;1.80;99.90
4050;DHT22;2039;50.894;6.888;2023-04-06T04:22:29;1.70;99.90
4050;DHT22;2039;50.894;6.888;2023-04-06T04:24:55;1.80;99.90
4050;DHT22;2039;50.894;6.888;2023-04-06T04:27:21;1.80;99.90
4050;DHT22;2039;50.894;6.888;2023-04-06T04:29:47;1.80;99.90
4050;DHT22;2039;50.894;6.888;2023-04-06T04:32:13;1.80;99.90
4050;DHT22;2039;50.894;6.888;2023-04-06T04:34:38;1.80;99.90
4050;DHT22;2039;50.894;6.888;2023-04-06T04:37:07;1.80;99.90
4050;DHT22;2039;50.894;6.888;2023-04-06T04:39:32;1.80;99.90
4050;DHT22;2039;50.894;6.888;2023-04-06T04:41:58;1.80;99.90
4050;DHT22;2039;50.894;6.888;2023-04-06T04:44:24;1.80;99.90
4050;DHT22;2039;50.894;6.888;2023-04-06T04:46:49;1.80;99.90
4050;DHT22;2039;50.894;6.888;2023-04-06T04:49:15;1.80;99.90
4050;DHT22;2039;50.894;6.888;2023-04-06T04:51:41;1.80;99.90
4050;DHT22;2039;50.894;6.888;2023-04-06T04:54:07;1.80;99.90
4050;DHT22;2039;50.894;6.888;2023-04-06T04:56:32;1.90;99.90
4050;DHT22;2039;50.894;6.888;2023-04-06T04:58:58;1.90;99.90
4050;DHT22;2039;50.894;6.888;2023-04-06T05:01:24;1.80;99.90
4050;DHT22;2039;50.894;6.888;2023-04-06T05:03:50;1.80;99.90
4050;DHT22;2039;50.894;6.888;2023-04-06T05:06:16;1.80;99.90
4050;DHT22;2039;50.894;6.888;2023-04-06T05:08:42;1.90;99.90
4050;DHT22;2039;50.894;6.888;2023-04-06T05:11:09;1.90;99.90
4050;DHT22;2039;50.894;6.888;2023-04-06T05:13:34;2.00;99.90
4050;DHT22;2039;50.894;6.888;2023-04-06T05:16:01;2.00;99.90
4050;DHT22;2039;50.894;6.888;2023-04-06T05:18:27;2.00;99.90
4050;DHT22;2039;50.894;6.888;2023-04-06T05:20:52;2.00;99.90
4050;DHT22;2039;50.894;6.888;2023-04-06T05:23:18;2.10;99.90
4050;DHT22;2039;50.894;6.888;2023-04-06T05:25:44;2.10;99.90
4050;DHT22;2039;50.894;6.888;2023-04-06T05:28:10;2.10;99.90
4050;DHT22;2039;50.894;6.888;2023-04-06T05:30:35;2.20;99.90
4050;DHT22;2039;50.894;6.888;2023-04-06T05:33:02;2.20;99.90
4050;DHT22;2039;50.894;6.888;2023-04-06T05:35:28;2.10;99.90
4050;DHT22;2039;50.894;6.888;2023-04-06T05:37:53;2.20;99.90
4050;DHT22;2039;50.894;6.888;2023-04-06T05:40:19;2.30;99.90
4050;DHT22;2039;50.894;6.888;2023-04-06T05:42:45;2.30;99.90
4050;DHT22;2039;50.894;6.888;2023-04-06T05:45:11;2.40;99.90
4050;DHT22;2039;50.894;6.888;2023-04-06T05:47:42;2.40;99.90
4050;DHT22;2039;50.894;6.888;2023-04-06T05:50:10;2.40;99.90
4050;DHT22;2039;50.894;6.888;2023-04-06T05:52:36;2.50;99.90
4050;DHT22;2039;50.894;6.888;2023-04-06T05:55:02;2.50;99.90
4050;DHT22;2039;50.894;6.888;2023-04-06T05:57:28;2.50;99.90
4050;DHT22;2039;50.894;6.888;2023-04-06T05:59:54;2.50;99.90
4050;DHT22;2039;50.894;6.888;2023-04-06T06:02:21;2.50;99.90
4050;DHT22;2039;50.894;6.888;2023-04-06T06:04:46;2.60;99.90
4050;DHT22;2039;50.894;6.888;2023-04-06T06:07:12;2.70;99.90
4050;DHT22;2039;50.894;6.888;2023-04-06T06:09:38;2.80;99.90
4050;DHT22;2039;50.894;6.888;2023-04-06T06:12:07;2.90;99.90
4050;DHT22;2039;50.894;6.888;2023-04-06T06:14:33;2.90;98.70
4050;DHT22;2039;50.894;6.888;2023-04-06T06:16:58;3.00;97.50
4050;DHT22;2039;50.894;6.888;2023-04-06T06:19:24;3.10;96.30
4050;DHT22;2039;50.894;6.888;2023-04-06T06:21:50;3.10;94.70
4050;DHT22;2039;50.894;6.888;2023-04-06T06:24:16;3.10;92.30
4050;DHT22;2039;50.894;6.888;2023-04-06T06:26:42;3.30;91.50
4050;DHT22;2039;50.894;6.888;2023-04-06T06:29:08;3.30;87.80
4050;DHT22;2039;50.894;6.888;2023-04-06T06:31:34;3.30;84.90
4050;DHT22;2039;50.894;6.888;2023-04-06T06:34:00;3.40;83.30
4050;DHT22;2039;50.894;6.888;2023-04-06T06:36:30;3.50;80.70
4050;DHT22;2039;50.894;6.888;2023-04-06T06:38:57;3.60;78.50
4050;DHT22;2039;50.894;6.888;2023-04-06T06:41:25;3.70;76.40
4050;DHT22;2039;50.894;6.888;2023-04-06T06:43:51;3.70;68.50
4050;DHT22;2039;50.894;6.888;2023-04-06T06:46:17;3.90;71.30
4050;DHT22;2039;50.894;6.888;2023-04-06T06:48:43;3.90;70.20
4050;DHT22;2039;50.894;6.888;2023-04-06T06:51:08;4.00;65.90
4050;DHT22;2039;50.894;6.888;2023-04-06T06:53:35;4.10;64.60
4050;DHT22;2039;50.894;6.888;2023-04-06T06:56:01;4.20;61.00
4050;DHT22;2039;50.894;6.888;2023-04-06T06:58:29;4.30;56.20
4050;DHT22;2039;50.894;6.888;2023-04-06T07:00:58;4.40;50.70
4050;DHT22;2039;50.894;6.888;2023-04-06T07:03:24;4.50;43.30
4050;DHT22;2039;50.894;6.888;2023-04-06T07:05:50;4.60;39.50
4050;DHT22;2039;50.894;6.888;2023-04-06T07:08:23;4.80;40.80
4050;DHT22;2039;50.894;6.888;2023-04-06T07:10:50;5.00;35.40
4050;DHT22;2039;50.894;6.888;2023-04-06T07:13:21;5.10;35.40
4050;DHT22;2039;50.894;6.888;2023-04-06T07:15:51;5.30;31.90
4050;DHT22;2039;50.894;6.888;2023-04-06T07:18:18;5.40;26.20
4050;DHT22;2039;50.894;6.888;2023-04-06T07:20:44;5.50;25.40
4050;DHT22;2039;50.894;6.888;2023-04-06T07:23:10;5.70;25.80
4050;DHT22;2039;50.894;6.888;2023-04-06T07:25:36;5.80;24.30
4050;DHT22;2039;50.894;6.888;2023-04-06T07:28:02;5.90;21.40
4050;DHT22;2039;50.894;6.888;2023-04-06T07:30:29;6.10;23.30
4050;DHT22;2039;50.894;6.888;2023-04-06T07:32:55;6.20;19.10
4050;DHT22;2039;50.894;6.888;2023-04-06T07:35:25;6.30;18.10
4050;DHT22;2039;50.894;6.888;2023-04-06T07:37:52;6.40;17.40
4050;DHT22;2039;50.894;6.888;2023-04-06T07:40:18;6.40;15.30
4050;DHT22;2039;50.894;6.888;2023-04-06T07:42:45;6.40;16.00
4050;DHT22;2039;50.894;6.888;2023-04-06T07:45:11;6.60;17.00
4050;DHT22;2039;50.894;6.888;2023-04-06T07:47:37;6.70;11.70
4050;DHT22;2039;50.894;6.888;2023-04-06T07:50:03;6.70;5.50
4050;DHT22;2039;50.894;6.888;2023-04-06T07:52:29;6.70;5.40
4050;DHT22;2039;50.894;6.888;2023-04-06T07:54:58;6.80;8.50
4050;DHT22;2039;50.894;6.888;2023-04-06T07:57:23;6.80;8.20
4050;DHT22;2039;50.894;6.888;2023-04-06T07:59:49;7.00;4.60
4050;DHT22;2039;50.894;6.888;2023-04-06T08:02:15;7.10;3.30
4050;DHT22;2039;50.894;6.888;2023-04-06T08:04:41;7.20;5.90
4050;DHT22;2039;50.894;6.888;2023-04-06T08:07:07;7.20;1.00
4050;DHT22;2039;50.894;6.888;2023-04-06T08:09:32;7.30;1.00
4050;DHT22;2039;50.894;6.888;2023-04-06T08:11:58;7.40;2.20
4050;DHT22;2039;50.894;6.888;2023-04-06T08:14:24;7.40;1.90
4050;DHT22;2039;50.894;6.888;2023-04-06T08:16:50;7.50;1.00
4050;DHT22;2039;50.894;6.888;2023-04-06T08:19:16;7.60;1.00
4050;DHT22;2039;50.894;6.888;2023-04-06T08:21:43;7.70;1.00
4050;DHT22;2039;50.894;6.888;2023-04-06T08:24:09;7.80;1.00
4050;DHT22;2039;50.894;6.888;2023-04-06T08:26:35;8.00;1.00
4050;DHT22;2039;50.894;6.888;2023-04-06T08:29:01;8.10;1.00
4050;DHT22;2039;50.894;6.888;2023-04-06T08:31:29;8.10;1.00
4050;DHT22;2039;50.894;6.888;2023-04-06T08:33:55;8.20;1.00
4050;DHT22;2039;50.894;6.888;2023-04-06T08:36:21;8.30;1.00
4050;DHT22;2039;50.894;6.888;2023-04-06T08:38:51;8.40;1.00
4050;DHT22;2039;50.894;6.888;2023-04-06T08:41:17;8.50;1.00
4050;DHT22;2039;50.894;6.888;2023-04-06T08:43:47;8.70;1.00
4050;DHT22;2039;50.894;6.888;2023-04-06T08:46:13;8.90;1.00
4050;DHT22;2039;50.894;6.888;2023-04-06T08:48:41;9.00;1.00
4050;DHT22;2039;50.894;6.888;2023-04-06T08:51:08;9.10;1.00
4050;DHT22;2039;50.894;6.888;2023-04-06T08:53:34;9.20;1.00
4050;DHT22;2039;50.894;6.888;2023-04-06T08:56:00;9.20;1.00
4050;DHT22;2039;50.894;6.888;2023-04-06T08:58:28;9.20;1.00
4050;DHT22;2039;50.894;6.888;2023-04-06T09:00:56;9.30;1.00
4050;DHT22;2039;50.894;6.888;2023-04-06T09:03:22;9.40;1.00
4050;DHT22;2039;50.894;6.888;2023-04-06T09:05:51;9.30;1.00
4050;DHT22;2039;50.894;6.888;2023-04-06T09:08:17;9.40;1.00
4050;DHT22;2039;50.894;6.888;2023-04-06T09:10:43;9.60;1.00
4050;DHT22;2039;50.894;6.888;2023-04-06T09:13:09;9.70;1.00
4050;DHT22;2039;50.894;6.888;2023-04-06T09:15:35;9.80;1.00
4050;DHT22;2039;50.894;6.888;2023-04-06T09:18:01;9.90;1.00
4050;DHT22;2039;50.894;6.888;2023-04-06T09:20:27;10.10;1.00
4050;DHT22;2039;50.894;6.888;2023-04-06T09:22:56;10.20;1.00
4050;DHT22;2039;50.894;6.888;2023-04-06T09:25:23;10.40;1.00
4050;DHT22;2039;50.894;6.888;2023-04-06T09:28:01;10.60;1.00
4050;DHT22;2039;50.894;6.888;2023-04-06T09:30:27;10.60;1.00
4050;DHT22;2039;50.894;6.888;2023-04-06T09:32:55;10.50;1.00
4050;DHT22;2039;50.894;6.888;2023-04-06T09:35:22;10.50;1.00
4050;DHT22;2039;50.894;6.888;2023-04-06T09:37:49;10.60;1.00
4050;DHT22;2039;50.894;6.888;2023-04-06T09:40:15;10.80;1.00
4050;DHT22;2039;50.894;6.888;2023-04-06T09:42:45;11.00;1.00
4050;DHT22;2039;50.894;6.888;2023-04-06T09:45:13;11.10;1.00
4050;DHT22;2039;50.894;6.888;2023-04-06T09:47:40;11.20;1.00
4050;DHT22;2039;50.894;6.888;2023-04-06T09:50:09;11.30;1.00
4050;DHT22;2039;50.894;6.888;2023-04-06T09:52:46;11.40;1.00
4050;DHT22;2039;50.894;6.888;2023-04-06T09:55:39;11.60;1.00
4050;DHT22;2039;50.894;6.888;2023-04-06T09:58:05;11.70;1.00
4050;DHT22;2039;50.894;6.888;2023-04-06T10:00:44;11.70;1.00
4050;DHT22;2039;50.894;6.888;2023-04-06T10:06:11;12.10;1.00
4050;DHT22;2039;50.894;6.888;2023-04-06T10:08:40;12.20;1.00
4050;DHT22;2039;50.894;6.888;2023-04-06T10:11:07;12.40;1.00
4050;DHT22;2039;50.894;6.888;2023-04-06T10:13:34;12.50;1.00
4050;DHT22;2039;50.894;6.888;2023-04-06T10:16:00;12.50;1.00
4050;DHT22;2039;50.894;6.888;2023-04-06T10:18:29;12.40;1.00
4050;DHT22;2039;50.894;6.888;2023-04-06T10:21:19;12.40;1.00
4050;DHT22;2039;50.894;6.888;2023-04-06T10:23:48;12.70;1.00
4050;DHT22;2039;50.894;6.888;2023-04-06T10:26:16;12.60;1.00
4050;DHT22;2039;50.894;6.888;2023-04-06T10:28:45;12.60;1.00
4050;DHT22;2039;50.894;6.888;2023-04-06T10:31:10;12.80;1.00
4050;DHT22;2039;50.894;6.888;2023-04-06T10:33:36;12.90;1.00
4050;DHT22;2039;50.894;6.888;2023-04-06T10:36:21;12.70;1.00
4050;DHT22;2039;50.894;6.888;2023-04-06T10:38:47;12.70;1.00
4050;DHT22;2039;50.894;6.888;2023-04-06T10:41:12;12.80;1.00
4050;DHT22;2039;50.894;6.888;2023-04-06T10:43:41;12.90;1.00
4050;DHT22;2039;50.894;6.888;2023-04-06T10:46:08;13.20;1.00
4050;DHT22;2039;50.894;6.888;2023-04-06T10:48:45;13.40;1.00
4050;DHT22;2039;50.894;6.888;2023-04-06T10:51:19;13.40;1.00
4050;DHT22;2039;50.894;6.888;2023-04-06T10:53:49;13.60;1.00
4050;DHT22;2039;50.894;6.888;2023-04-06T10:56:17;13.70;1.00
4050;DHT22;2039;50.894;6.888;2023-04-06T10:58:47;13.70;1.00
4050;DHT22;2039;50.894;6.888;2023-04-06T11:01:15;13.80;1.00
4050;DHT22;2039;50.894;6.888;2023-04-06T11:03:52;13.80;1.00
4050;DHT22;2039;50.894;6.888;2023-04-06T11:06:29;13.80;1.00
4050;DHT22;2039;50.894;6.888;2023-04-06T11:08:57;13.60;1.00
4050;DHT22;2039;50.894;6.888;2023-04-06T11:11:24;13.50;1.00
4050;DHT22;2039;50.894;6.888;2023-04-06T11:13:59;13.50;1.00
4050;DHT22;2039;50.894;6.888;2023-04-06T11:16:32;13.40;1.00
4050;DHT22;2039;50.894;6.888;2023-04-06T11:18:58;13.60;1.00
4050;DHT22;2039;50.894;6.888;2023-04-06T11:21:35;13.70;1.00
4050;DHT22;2039;50.894;6.888;2023-04-06T11:24:19;13.90;1.00
4050;DHT22;2039;50.894;6.888;2023-04-06T11:29:20;13.90;1.00
4050;DHT22;2039;50.894;6.888;2023-04-06T11:31:51;13.70;1.00
4050;DHT22;2039;50.894;6.888;2023-04-06T11:34:21;13.90;1.00
4050;DHT22;2039;50.894;6.888;2023-04-06T11:36:49;14.20;1.00
4050;DHT22;2039;50.894;6.888;2023-04-06T11:39:22;14.30;1.00
4050;DHT22;2039;50.894;6.888;2023-04-06T11:41:50;14.50;1.00
4050;DHT22;2039;50.894;6.888;2023-04-06T11:44:36;14.60;1.00
4050;DHT22;2039;50.894;6.888;2023-04-06T11:47:08;14.60;1.00
4050;DHT22;2039;50.894;6.888;2023-04-06T11:49:38;14.70;1.00
4050;DHT22;2039;50.894;6.888;2023-04-06T11:52:18;14.60;1.00
4050;DHT22;2039;50.894;6.888;2023-04-06T11:54:45;14.60;1.00
4050;DHT22;2039;50.894;6.888;2023-04-06T11:57:11;14.70;1.00
4050;DHT22;2039;50.894;6.888;2023-04-06T11:59:37;15.00;1.00
4050;DHT22;2039;50.894;6.888;2023-04-06T12:02:04;15.20;1.00
4050;DHT22;2039;50.894;6.888;2023-04-06T12:04:30;15.20;1.00
4050;DHT22;2039;50.894;6.888;2023-04-06T12:06:55;15.40;1.00
4050;DHT22;2039;50.894;6.888;2023-04-06T12:09:21;15.50;1.00
4050;DHT22;2039;50.894;6.888;2023-04-06T12:11:47;15.60;1.00
4050;DHT22;2039;50.894;6.888;2023-04-06T12:14:13;15.70;1.00
4050;DHT22;2039;50.894;6.888;2023-04-06T12:16:39;15.70;1.00
4050;DHT22;2039;50.894;6.888;2023-04-06T12:19:06;15.70;1.00
4050;DHT22;2039;50.894;6.888;2023-04-06T12:21:32;15.40;1.00
4050;DHT22;2039;50.894;6.888;2023-04-06T12:23:58;15.50;1.00
4050;DHT22;2039;50.894;6.888;2023-04-06T12:26:25;15.40;1.00
4050;DHT22;2039;50.894;6.888;2023-04-06T12:28:52;15.50;1.00
4050;DHT22;2039;50.894;6.888;2023-04-06T12:31:18;15.20;1.00
4050;DHT22;2039;50.894;6.888;2023-04-06T12:33:48;15.30;1.00
4050;DHT22;2039;50.894;6.888;2023-04-06T12:36:16;15.40;1.00
4050;DHT22;2039;50.894;6.888;2023-04-06T12:38:44;15.40;1.00
4050;DHT22;2039;50.894;6.888;2023-04-06T12:41:11;15.40;1.00
4050;DHT22;2039;50.894;6.888;2023-04-06T12:43:37;15.50;1.00
4050;DHT22;2039;50.894;6.888;2023-04-06T12:46:03;15.10;1.00
4050;DHT22;2039;50.894;6.888;2023-04-06T12:48:29;14.80;1.00
4050;DHT22;2039;50.894;6.888;2023-04-06T12:51:01;14.90;1.00
4050;DHT22;2039;50.894;6.888;2023-04-06T12:53:27;15.00;1.00
4050;DHT22;2039;50.894;6.888;2023-04-06T12:55:54;15.00;1.00
4050;DHT22;2039;50.894;6.888;2023-04-06T12:58:20;14.90;1.00
4050;DHT22;2039;50.894;6.888;2023-04-06T13:00:48;14.80;1.00
4050;DHT22;2039;50.894;6.888;2023-04-06T13:03:14;14.50;1.00
4050;DHT22;2039;50.894;6.888;2023-04-06T13:05:50;14.50;1.00
4050;DHT22;2039;50.894;6.888;2023-04-06T13:08:17;14.40;1.00
4050;DHT22;2039;50.894;6.888;2023-04-06T13:10:47;14.40;1.00
4050;DHT22;2039;50.894;6.888;2023-04-06T13:13:16;14.40;1.00
4050;DHT22;2039;50.894;6.888;2023-04-06T13:15:44;14.30;1.00
4050;DHT22;2039;50.894;6.888;2023-04-06T13:18:10;14.30;1.00
4050;DHT22;2039;50.894;6.888;2023-04-06T13:20:36;13.80;1.00
4050;DHT22;2039;50.894;6.888;2023-04-06T13:23:02;13.60;1.00
4050;DHT22;2039;50.894;6.888;2023-04-06T13:25:29;13.60;1.00
4050;DHT22;2039;50.894;6.888;2023-04-06T13:27:55;13.50;1.00
4050;DHT22;2039;50.894;6.888;2023-04-06T13:30:24;13.60;1.00
4050;DHT22;2039;50.894;6.888;2023-04-06T13:32:50;13.70;1.00
4050;DHT22;2039;50.894;6.888;2023-04-06T13:35:16;13.60;1.00
4050;DHT22;2039;50.894;6.888;2023-04-06T13:37:42;13.60;1.00
4050;DHT22;2039;50.894;6.888;2023-04-06T13:40:08;13.20;1.00
4050;DHT22;2039;50.894;6.888;2023-04-06T13:42:34;12.90;1.00
4050;DHT22;2039;50.894;6.888;2023-04-06T13:45:07;12.80;1.00
4050;DHT22;2039;50.894;6.888;2023-04-06T13:47:33;12.60;1.00
4050;DHT22;2039;50.894;6.888;2023-04-06T13:49:59;12.40;1.00
4050;DHT22;2039;50.894;6.888;2023-04-06T13:52:25;12.40;1.00
4050;DHT22;2039;50.894;6.888;2023-04-06T13:54:52;12.40;1.00
4050;DHT22;2039;50.894;6.888;2023-04-06T13:57:17;12.30;1.00
4050;DHT22;2039;50.894;6.888;2023-04-06T13:59:43;12.10;1.00
4050;DHT22;2039;50.894;6.888;2023-04-06T14:02:09;12.20;1.00
4050;DHT22;2039;50.894;6.888;2023-04-06T14:04:35;12.30;1.00
4050;DHT22;2039;50.894;6.888;2023-04-06T14:07:03;12.10;1.00
4050;DHT22;2039;50.894;6.888;2023-04-06T14:09:29;12.00;1.00
4050;DHT22;2039;50.894;6.888;2023-04-06T14:11:55;12.00;1.00
4050;DHT22;2039;50.894;6.888;2023-04-06T14:14:22;12.00;1.00
4050;DHT22;2039;50.894;6.888;2023-04-06T14:16:48;12.00;1.00
4050;DHT22;2039;50.894;6.888;2023-04-06T14:19:15;12.10;1.00
4050;DHT22;2039;50.894;6.888;2023-04-06T14:21:43;12.20;1.00
4050;DHT22;2039;50.894;6.888;2023-04-06T14:24:09;11.90;1.00
4050;DHT22;2039;50.894;6.888;2023-04-06T14:26:36;12.00;1.00
4050;DHT22;2039;50.894;6.888;2023-04-06T14:29:03;12.10;1.00
4050;DHT22;2039;50.894;6.888;2023-04-06T14:31:29;12.20;1.00
4050;DHT22;2039;50.894;6.888;2023-04-06T14:33:55;12.00;1.00
4050;DHT22;2039;50.894;6.888;2023-04-06T14:36:21;11.90;1.00
4050;DHT22;2039;50.894;6.888;2023-04-06T14:38:47;12.10;1.00
4050;DHT22;2039;50.894;6.888;2023-04-06T14:41:19;12.10;1.00
4050;DHT22;2039;50.894;6.888;2023-04-06T14:43:49;12.00;1.00
4050;DHT22;2039;50.894;6.888;2023-04-06T14:46:15;12.10;8.50
4050;DHT22;2039;50.894;6.888;2023-04-06T14:48:43;11.60;19.10
4050;DHT22;2039;50.894;6.888;2023-04-06T14:51:09;11.70;19.10
4050;DHT22;2039;50.894;6.888;2023-04-06T14:53:35;11.70;27.20
4050;DHT22;2039;50.894;6.888;2023-04-06T14:56:01;11.50;29.80
4050;DHT22;2039;50.894;6.888;2023-04-06T14:58:26;11.50;41.10
4050;DHT22;2039;50.894;6.888;2023-04-06T15:00:56;11.20;35.90
4050;DHT22;2039;50.894;6.888;2023-04-06T15:03:23;11.10;41.30
4050;DHT22;2039;50.894;6.888;2023-04-06T15:05:51;11.30;40.30
4050;DHT22;2039;50.894;6.888;2023-04-06T15:08:16;11.10;41.90
4050;DHT22;2039;50.894;6.888;2023-04-06T15:10:48;11.00;47.90
4050;DHT22;2039;50.894;6.888;2023-04-06T15:13:14;10.90;55.00
4050;DHT22;2039;50.894;6.888;2023-04-06T15:15:40;10.90;58.30
4050;DHT22;2039;50.894;6.888;2023-04-06T15:18:12;10.80;69.90
4050;DHT22;2039;50.894;6.888;2023-04-06T15:20:38;10.80;68.10
4050;DHT22;2039;50.894;6.888;2023-04-06T15:23:04;10.70;69.30
4050;DHT22;2039;50.894;6.888;2023-04-06T15:25:30;10.50;74.60
4050;DHT22;2039;50.894;6.888;2023-04-06T15:27:56;10.40;80.10
4050;DHT22;2039;50.894;6.888;2023-04-06T15:30:22;10.40;92.80
4050;DHT22;2039;50.894;6.888;2023-04-06T15:33:07;10.40;94.70
4050;DHT22;2039;50.894;6.888;2023-04-06T15:35:33;10.40;97.40
4050;DHT22;2039;50.894;6.888;2023-04-06T15:37:59;10.40;98.50
4050;DHT22;2039;50.894;6.888;2023-04-06T15:40:26;10.50;97.70
4050;DHT22;2039;50.894;6.888;2023-04-06T15:42:52;10.50;98.60
4050;DHT22;2039;50.894;6.888;2023-04-06T15:45:18;10.30;99.90
4050;DHT22;2039;50.894;6.888;2023-04-06T15:47:44;10.20;99.90
4050;DHT22;2039;50.894;6.888;2023-04-06T15:50:11;10.40;99.90
4050;DHT22;2039;50.894;6.888;2023-04-06T15:52:38;10.40;99.90
4050;DHT22;2039;50.894;6.888;2023-04-06T15:55:05;10.30;99.90
4050;DHT22;2039;50.894;6.888;2023-04-06T15:57:31;10.30;99.90
4050;DHT22;2039;50.894;6.888;2023-04-06T15:59:57;10.20;99.90
4050;DHT22;2039;50.894;6.888;2023-04-06T16:02:23;10.10;99.90
4050;DHT22;2039;50.894;6.888;2023-04-06T16:04:54;10.00;99.90
4050;DHT22;2039;50.894;6.888;2023-04-06T16:07:20;10.00;99.90
4050;DHT22;2039;50.894;6.888;2023-04-06T16:09:45;10.00;99.90
4050;DHT22;2039;50.894;6.888;2023-04-06T16:12:11;9.90;99.90
4050;DHT22;2039;50.894;6.888;2023-04-06T16:14:37;9.90;99.90
4050;DHT22;2039;50.894;6.888;2023-04-06T16:17:02;10.00;99.90
4050;DHT22;2039;50.894;6.888;2023-04-06T16:19:28;9.90;99.90
4050;DHT22;2039;50.894;6.888;2023-04-06T16:21:54;9.90;99.90